Time;durP1;ratioP1;P1;durP2;ratioP2;P2;SDS_P1;SDS_P2;PMS_P1;PMS_P2;Temp;Humidity;BMP_temperature;BMP_pressure;BME280_temperature;BME280_humidity;BME280_pressure;Samples;Min_cycle;Max_cycle;Signal;HPM_P1;HPM_P2
2023/10/08 00:02:14;;;;;;;2.83;2.33;;;;;;;12.52;47.06;63294.72;5076674;28;20373;-78
2023/10/08 00:04:44;;;;;;;4.55;2.90;;;;;;;12.64;47.00;63301.53;5090347;28;20239;-79
2023/10/08 00:07:11;;;;;;;3.40;2.67;;;;;;;12.63;47.31;63300.50;5087883;28;20200;-78
2023/10/08 00:09:39;;;;;;;2.47;2.28;;;;;;;12.57;47.13;63299.38;5079820;28;20285;-78
2023/10/08 00:12:07;;;;;;;2.85;2.60;;;;;;;12.60;47.17;63297.88;5069896;28;20201;-77
2023/10/08 00:14:43;;;;;;;4.60;2.17;;;;;;;12.59;47.47;63301.97;5072595;28;20213;-78
2023/10/08 00:17:11;;;;;;;3.53;2.10;;;;;;;12.55;47.79;63294.75;5072389;28;20211;-78
2023/10/08 00:19:39;;;;;;;3.13;2.17;;;;;;;12.51;47.38;63291.09;5082396;28;20221;-78
2023/10/08 00:22:09;;;;;;;2.60;2.40;;;;;;;12.46;47.80;63282.84;5085233;28;20185;-78
2023/10/08 00:24:40;;;;;;;2.35;2.15;;;;;;;12.46;48.05;63285.94;5089431;28;20405;-77
2023/10/08 00:27:08;;;;;;;3.72;2.58;;;;;;;12.39;48.41;63276.13;5072681;28;20244;-78
2023/10/08 00:29:39;;;;;;;5.63;2.55;;;;;;;12.34;49.16;63270.41;5068782;28;20228;-77
2023/10/08 00:32:11;;;;;;;3.00;2.53;;;;;;;12.38;48.71;63277.63;5084563;28;20199;-77
2023/10/08 00:34:41;;;;;;;5.10;3.00;;;;;;;12.40;48.61;63279.72;5088741;28;20216;-78
2023/10/08 00:37:10;;;;;;;2.50;2.30;;;;;;;12.45;48.79;63281.81;5069388;28;20209;-78
2023/10/08 00:39:40;;;;;;;4.45;2.88;;;;;;;12.48;48.08;63284.94;5071219;28;20229;-78
2023/10/08 00:42:08;;;;;;;3.97;2.15;;;;;;;12.36;48.33;63280.16;5079864;28;20208;-78
2023/10/08 00:44:41;;;;;;;6.25;2.15;;;;;;;12.33;48.15;63269.38;5078252;28;20242;-78
2023/10/08 00:47:12;;;;;;;2.38;2.22;;;;;;;12.28;48.23;63266.75;5068310;28;20271;-77
2023/10/08 00:52:29;;;;;;;3.00;2.58;;;;;;;12.14;48.72;63252.75;5074808;28;20485;-77
2023/10/08 00:55:21;;;;;;;2.58;2.28;;;;;;;12.12;49.16;63245.56;5074056;28;20252;-79
2023/10/08 00:57:53;;;;;;;3.35;2.47;;;;;;;12.05;49.69;63240.88;5070767;28;20208;-78
2023/10/08 01:00:22;;;;;;;2.05;1.92;;;;;;;12.04;50.36;63241.88;5073687;28;20281;-78
2023/10/08 01:02:55;;;;;;;2.80;2.47;;;;;;;12.01;50.75;63239.28;5085023;28;20501;-78
2023/10/08 01:05:30;;;;;;;2.95;2.72;;;;;;;12.00;51.02;63240.78;5067733;28;20284;-79
2023/10/08 01:07:59;;;;;;;3.00;2.70;;;;;;;11.98;51.43;63236.16;5068800;28;20196;-78
2023/10/08 01:10:26;;;;;;;2.78;2.28;;;;;;;11.92;51.68;63232.50;5070902;28;20316;-78
2023/10/08 01:13:04;;;;;;;3.03;2.70;;;;;;;11.94;51.88;63228.97;5066096;28;20391;-78
2023/10/08 01:15:35;;;;;;;2.60;2.45;;;;;;;11.86;52.20;63226.28;5068794;28;20229;-78
2023/10/08 01:18:05;;;;;;;5.15;2.85;;;;;;;11.87;52.17;63222.22;5068199;28;20217;-78
2023/10/08 01:20:37;;;;;;;3.00;2.80;;;;;;;11.87;52.25;63222.22;5082858;28;20223;-78
2023/10/08 01:23:09;;;;;;;9.70;2.92;;;;;;;11.85;53.33;63219.63;5084435;28;20201;-77
2023/10/08 01:25:38;;;;;;;3.42;2.60;;;;;;;11.78;53.18;63215.44;5088728;28;20220;-79
2023/10/08 01:28:15;;;;;;;2.13;1.92;;;;;;;11.72;54.20;63206.16;5087915;28;20254;-78
2023/10/08 01:30:46;;;;;;;2.75;2.40;;;;;;;11.60;54.00;63197.31;5082110;28;20266;-78
2023/10/08 01:33:15;;;;;;;3.67;2.85;;;;;;;11.63;54.19;63202.44;5088129;28;20189;-78
2023/10/08 01:35:43;;;;;;;4.70;2.63;;;;;;;11.66;54.09;63202.50;5088318;28;20319;-78
2023/10/08 01:38:13;;;;;;;2.58;2.38;;;;;;;11.67;54.30;63203.53;5087024;28;20271;-78
2023/10/08 01:40:50;;;;;;;3.10;2.80;;;;;;;11.64;54.30;63198.41;5077520;28;20279;-77
2023/10/08 01:43:17;;;;;;;3.95;3.05;;;;;;;11.60;53.94;63194.22;5086654;28;20196;-77
2023/10/08 01:45:49;;;;;;;3.00;2.80;;;;;;;11.64;54.58;63198.41;5088670;28;20232;-78
2023/10/08 01:48:20;;;;;;;3.75;2.83;;;;;;;11.69;54.17;63205.59;5083083;28;20272;-77
2023/10/08 01:50:48;;;;;;;4.75;2.85;;;;;;;11.69;55.64;63203.06;5080872;28;20216;-78
2023/10/08 01:53:19;;;;;;;3.67;2.55;;;;;;;11.60;55.06;63197.31;5072630;28;20204;-78
2023/10/08 01:55:49;;;;;;;2.88;2.67;;;;;;;11.49;55.89;63185.38;5078786;28;20213;-77
2023/10/08 01:58:18;;;;;;;3.80;2.40;;;;;;;11.47;56.89;63183.84;5069271;28;20201;-78
2023/10/08 02:00:46;;;;;;;3.10;2.90;;;;;;;11.37;57.01;63168.38;5068340;28;20229;-78
2023/10/08 02:03:17;;;;;;;3.95;2.33;;;;;;;11.32;57.16;63168.28;5067204;28;20198;-77
2023/10/08 02:05:45;;;;;;;3.03;2.63;;;;;;;11.27;58.49;63163.09;5067947;28;20236;-78
2023/10/08 02:08:13;;;;;;;2.90;2.38;;;;;;;11.25;58.21;63158.50;5081706;28;20223;-79
2023/10/08 02:10:46;;;;;;;4.75;2.13;;;;;;;11.12;58.58;63147.59;5068554;28;20248;-77
2023/10/08 02:13:15;;;;;;;4.13;2.53;;;;;;;11.11;57.16;63141.44;5069526;28;20203;-77
2023/10/08 02:15:47;;;;;;;4.85;3.15;;;;;;;11.11;57.61;63140.94;5071705;28;20646;-77
2023/10/08 02:18:14;;;;;;;3.10;2.22;;;;;;;11.07;58.58;63141.88;5085122;28;20559;-78
2023/10/08 02:20:41;;;;;;;2.60;2.28;;;;;;;10.97;58.69;63128.97;5085419;28;20276;-78
2023/10/08 02:23:11;;;;;;;2.67;2.47;;;;;;;11.03;58.84;63138.25;5065026;28;20209;-78
2023/10/08 02:25:39;;;;;;;2.80;2.60;;;;;;;10.98;58.96;63128.00;5067143;28;20434;-77
2023/10/08 02:28:10;;;;;;;3.50;2.38;;;;;;;10.90;60.00;63119.72;5067258;28;20204;-79
2023/10/08 02:30:38;;;;;;;3.17;2.72;;;;;;;10.89;60.38;63125.81;5072854;28;20209;-78
2023/10/08 02:33:13;;;;;;;2.58;2.38;;;;;;;10.87;60.07;63121.69;5085582;28;20224;-78
2023/10/08 02:35:42;;;;;;;3.10;2.53;;;;;;;10.87;60.16;63118.63;5067875;28;20208;-79
2023/10/08 02:38:09;;;;;;;5.53;2.85;;;;;;;10.87;60.03;63119.13;5085393;28;20204;-77
2023/10/08 02:40:44;;;;;;;3.90;2.92;;;;;;;10.75;59.66;63106.22;5068807;28;20217;-79
2023/10/08 02:43:14;;;;;;;2.83;2.63;;;;;;;10.86;59.67;63122.69;5066246;28;20212;-78
2023/10/08 02:45:41;;;;;;;4.22;3.20;;;;;;;10.88;59.95;63117.63;5066363;28;20237;-77
2023/10/08 02:48:12;;;;;;;3.40;2.33;;;;;;;10.91;59.90;63125.84;5066838;28;20510;-78
2023/10/08 02:50:40;;;;;;;2.70;2.47;;;;;;;10.98;58.41;63135.09;5065400;28;20222;-76
2023/10/08 02:53:10;;;;;;;3.55;2.67;;;;;;;10.94;59.62;63126.38;5071125;28;20213;-77
2023/10/08 02:55:42;;;;;;;2.88;2.60;;;;;;;10.95;59.51;63129.47;5066003;28;20415;-77
2023/10/08 02:58:14;;;;;;;4.50;3.22;;;;;;;10.99;58.67;63136.16;5066005;28;20212;-78
2023/10/08 03:00:42;;;;;;;4.50;2.58;;;;;;;11.04;59.19;63138.78;5076186;28;20216;-77
2023/10/08 03:03:15;;;;;;;3.83;2.78;;;;;;;11.05;59.38;63137.78;5080425;28;20522;-77
2023/10/08 03:05:46;;;;;;;5.13;2.80;;;;;;;11.05;58.91;63139.81;5087503;28;20236;-76
2023/10/08 03:08:13;;;;;;;3.35;2.72;;;;;;;11.06;59.00;63138.31;5085839;28;20204;-78
2023/10/08 03:10:41;;;;;;;3.85;2.70;;;;;;;11.17;57.91;63147.66;5074030;28;20220;-77
2023/10/08 03:13:10;;;;;;;4.10;3.40;;;;;;;11.23;58.57;63153.38;5084880;28;20205;-77
2023/10/08 03:15:46;;;;;;;5.50;3.38;;;;;;;11.31;58.45;63166.75;5085436;28;20255;-78
2023/10/08 03:18:15;;;;;;;3.47;3.17;;;;;;;11.37;57.94;63170.41;5085381;28;20227;-78
2023/10/08 03:20:45;;;;;;;3.45;3.08;;;;;;;11.40;58.53;63170.97;5070150;28;20239;-76
2023/10/08 03:23:22;;;;;;;6.43;3.03;;;;;;;11.40;57.85;63170.97;5076214;28;20247;-77
2023/10/08 03:25:56;;;;;;;3.20;2.83;;;;;;;11.40;58.02;63176.59;5067477;28;20262;-77
2023/10/08 03:28:27;;;;;;;6.05;3.03;;;;;;;11.38;59.25;63171.44;5066530;28;20511;-76
2023/10/08 03:31:02;;;;;;;8.45;3.45;;;;;;;11.33;60.74;63168.81;5085279;28;20220;-78
2023/10/08 03:33:34;;;;;;;6.00;3.40;;;;;;;11.29;58.94;63162.13;5086704;28;20516;-77
2023/10/08 03:36:08;;;;;;;4.60;3.22;;;;;;;11.31;59.35;63161.63;5086802;28;20238;-76
2023/10/08 03:38:50;;;;;;;3.60;3.30;;;;;;;11.24;59.42;63159.47;5071972;28;20208;-78
2023/10/08 03:41:20;;;;;;;4.68;3.78;;;;;;;11.25;59.08;63155.94;5087283;28;20592;-77
2023/10/08 03:43:58;;;;;;;3.75;2.85;;;;;;;11.22;59.48;63154.88;5090640;28;20192;-77
2023/10/08 03:46:26;;;;;;;9.38;3.60;;;;;;;11.18;60.26;63150.72;5078468;28;20469;-77
2023/10/08 03:48:57;;;;;;;3.40;3.00;;;;;;;11.16;60.40;63149.19;5069275;28;20251;-77
2023/10/08 03:51:27;;;;;;;5.32;3.15;;;;;;;11.11;60.51;63146.53;5088374;28;20279;-78
2023/10/08 03:54:15;;;;;;;4.22;3.53;;;;;;;11.08;60.44;63145.97;5089579;28;20493;-77
2023/10/08 03:56:45;;;;;;;3.25;2.95;;;;;;;11.04;60.97;63138.78;5081278;28;20231;-77
2023/10/08 03:59:14;;;;;;;5.43;3.40;;;;;;;11.06;62.38;63140.84;5084321;28;20256;-78
2023/10/08 04:01:44;;;;;;;6.32;3.40;;;;;;;11.04;62.08;63138.78;5069703;28;20278;-78
2023/10/08 04:04:16;;;;;;;3.92;3.22;;;;;;;10.98;61.32;63138.19;5069634;28;20387;-77
2023/10/08 04:06:49;;;;;;;7.60;3.40;;;;;;;11.03;61.47;63138.25;5073545;28;20235;-77
2023/10/08 04:09:25;;;;;;;5.72;3.90;;;;;;;11.01;61.89;63138.22;5079442;28;20365;-77
2023/10/08 04:11:53;;;;;;;5.95;5.25;;;;;;;11.01;62.14;63141.28;5067908;28;20277;-79
2023/10/08 04:14:22;;;;;;;5.63;4.22;;;;;;;11.01;63.04;63136.19;5068503;28;20217;-77
2023/10/08 04:16:51;;;;;;;2.83;2.63;;;;;;;11.01;61.15;63133.63;5068044;28;20213;-76
2023/10/08 04:19:26;;;;;;;6.82;3.25;;;;;;;11.11;60.38;63146.03;5068707;28;20225;-78
2023/10/08 04:21:55;;;;;;;3.47;3.15;;;;;;;11.25;57.51;63161.03;5080436;28;20209;-76
2023/10/08 04:24:29;;;;;;;3.47;3.17;;;;;;;11.49;57.55;63180.28;5072557;28;20228;-78
2023/10/08 04:27:02;;;;;;;3.40;3.10;;;;;;;11.65;56.76;63201.47;5072799;28;20512;-77
2023/10/08 04:29:32;;;;;;;4.88;3.70;;;;;;;11.71;56.90;63205.13;5069656;28;20516;-78
2023/10/08 04:32:07;;;;;;;6.20;3.40;;;;;;;11.74;56.41;63206.19;5074705;28;20525;-77
2023/10/08 04:34:36;;;;;;;3.85;3.22;;;;;;;11.84;57.15;63221.16;5075318;28;20295;-77
2023/10/08 04:37:12;;;;;;;3.63;3.33;;;;;;;11.83;57.64;63218.09;5076712;28;20199;-78
2023/10/08 04:39:40;;;;;;;4.93;3.47;;;;;;;11.78;57.74;63212.91;5068692;28;20215;-78
2023/10/08 04:42:10;;;;;;;4.75;3.30;;;;;;;11.75;57.83;63212.34;5082914;28;20513;-78
2023/10/08 04:44:40;;;;;;;4.25;3.33;;;;;;;11.72;59.13;63206.69;5087963;28;20216;-78
2023/10/08 04:47:09;;;;;;;4.72;3.50;;;;;;;11.67;59.32;63201.50;5088003;28;20207;-78
2023/10/08 04:49:45;;;;;;;5.68;3.83;;;;;;;11.60;59.33;63194.75;5082542;28;20362;-78
2023/10/08 04:52:14;;;;;;;4.53;3.10;;;;;;;11.57;60.74;63191.13;5068284;28;20197;-78
2023/10/08 04:54:51;;;;;;;7.30;3.63;;;;;;;11.48;60.11;63184.34;5068815;28;20245;-78
2023/10/08 04:57:22;;;;;;;4.93;3.45;;;;;;;11.47;60.77;63186.38;5069292;28;20226;-77
2023/10/08 04:59:51;;;;;;;3.92;3.35;;;;;;;11.37;61.05;63173.47;5072864;28;20579;-78
2023/10/08 05:02:33;;;;;;;4.45;3.00;;;;;;;11.37;61.82;63173.47;5069110;28;20204;-78
2023/10/08 05:08:07;;;;;;;4.75;3.95;;;;;;;11.36;63.76;63171.91;5069517;28;20204;-78
2023/10/08 05:11:00;;;;;;;4.05;3.17;;;;;;;11.39;63.36;63173.00;5069567;28;20244;-78
2023/10/08 05:13:33;;;;;;;13.27;3.55;;;;;;;11.29;64.02;63160.09;5068355;28;20204;-78
2023/10/08 05:16:19;;;;;;;5.35;3.42;;;;;;;11.33;63.90;63169.34;5067970;28;20221;-77
2023/10/08 05:19:08;;;;;;;6.18;3.28;;;;;;;11.33;63.99;63168.81;5087430;28;20255;-76
2023/10/08 05:21:51;;;;;;;3.22;2.97;;;;;;;11.39;63.89;63170.44;5079656;28;20527;-77
2023/10/08 05:24:27;;;;;;;7.63;3.50;;;;;;;11.54;63.67;63188.03;5068495;28;20225;-77
2023/10/08 05:27:25;;;;;;;3.67;3.38;;;;;;;11.58;64.53;63189.59;5070373;28;20223;-78
2023/10/08 05:30:11;;;;;;;5.38;3.53;;;;;;;11.66;65.42;63202.50;5069040;28;20245;-77
2023/10/08 05:32:44;;;;;;;4.43;3.65;;;;;;;11.79;68.51;63213.94;5068115;28;20201;-77
2023/10/08 05:38:13;;;;;;;7.20;3.90;;;;;;;11.64;69.66;63198.41;5070070;28;20257;-78
2023/10/08 05:40:54;;;;;;;4.85;3.95;;;;;;;11.73;69.15;63209.75;5079005;28;20221;-77
2023/10/08 05:43:48;;;;;;;3.70;3.33;;;;;;;11.71;65.69;63208.19;5067344;28;20217;-78
2023/10/08 05:46:39;;;;;;;7.70;3.53;;;;;;;11.88;65.93;63222.72;5086253;28;20530;-77
2023/10/08 05:49:26;;;;;;;5.85;3.97;;;;;;;12.01;65.51;63236.22;5067822;28;20197;-77
2023/10/08 05:54:47;;;;;;;8.07;4.30;;;;;;;12.17;63.43;63255.88;5046469;28;20227;-76
2023/10/08 05:57:24;;;;;;;3.90;3.58;;;;;;;12.31;63.68;63265.28;5086984;28;20218;-75
2023/10/08 06:03:00;;;;;;;4.28;3.67;;;;;;;12.56;61.48;63293.72;5076479;28;20197;-79
2023/10/08 06:05:33;;;;;;;4.60;3.45;;;;;;;12.73;62.19;63313.41;5067908;28;20259;-77
2023/10/08 06:08:11;;;;;;;4.55;3.30;;;;;;;12.92;59.82;63333.13;5067354;28;20201;-78
2023/10/08 06:10:56;;;;;;;3.40;3.10;;;;;;;12.94;59.70;63335.19;5068315;28;20225;-76
2023/10/08 06:13:29;;;;;;;7.13;4.03;;;;;;;13.22;60.30;63366.31;5074510;28;20266;-78
2023/10/08 06:16:08;;;;;;;4.47;3.78;;;;;;;13.57;58.67;63400.03;5084646;28;20280;-78
2023/10/08 06:18:34;;;;;;;5.72;3.60;;;;;;;13.81;57.07;63425.47;5082063;28;20220;-78
2023/10/08 06:21:08;;;;;;;5.32;3.63;;;;;;;14.09;55.26;63456.59;5076335;28;20228;-78
2023/10/08 06:23:36;;;;;;;3.30;3.00;;;;;;;14.25;55.09;63473.22;5069380;28;20201;-78
2023/10/08 06:26:13;;;;;;;5.22;3.80;;;;;;;14.36;55.88;63471.31;5085311;28;20239;-76
2023/10/08 06:28:42;;;;;;;5.90;3.50;;;;;;;14.40;54.88;63483.69;5087107;28;20234;-78
2023/10/08 06:31:16;;;;;;;8.38;3.78;;;;;;;14.52;53.96;63493.56;5084344;28;20220;-77
2023/10/08 06:33:44;;;;;;;7.95;3.55;;;;;;;14.60;51.67;63504.44;5069061;28;20194;-78
2023/10/08 06:36:15;;;;;;;7.10;3.33;;;;;;;14.71;52.59;63512.78;5068851;28;20217;-79
2023/10/08 06:38:43;;;;;;;6.07;3.47;;;;;;;14.69;52.48;63515.84;5064724;28;20204;-77
2023/10/08 06:41:17;;;;;;;6.85;3.40;;;;;;;14.62;52.96;63506.00;5066746;28;20229;-76
2023/10/08 06:43:48;;;;;;;5.65;3.17;;;;;;;14.54;52.51;63500.78;5067054;28;20591;-78
2023/10/08 06:46:15;;;;;;;4.78;2.97;;;;;;;14.57;52.58;63501.31;5068329;28;20240;-78
2023/10/08 06:48:44;;;;;;;5.60;3.42;;;;;;;14.70;52.51;63516.88;5077516;28;20264;-79
2023/10/08 06:51:14;;;;;;;7.28;3.65;;;;;;;14.73;52.11;63520.53;5086236;28;20291;-78
2023/10/08 06:53:41;;;;;;;3.85;3.30;;;;;;;14.75;52.33;63522.06;5086074;28;20217;-78
2023/10/08 06:56:11;;;;;;;7.18;3.13;;;;;;;14.86;52.08;63536.06;5084476;28;20224;-76
2023/10/08 06:58:42;;;;;;;4.22;3.00;;;;;;;14.94;51.47;63539.75;5079593;28;20196;-77
2023/10/08 07:01:10;;;;;;;7.65;3.83;;;;;;;15.13;51.20;63561.56;5071672;28;20225;-78
2023/10/08 07:03:38;;;;;;;4.75;3.63;;;;;;;15.29;50.40;63577.66;5067185;28;20215;-79
2023/10/08 07:06:16;;;;;;;4.20;3.78;;;;;;;15.39;50.63;63588.59;5074150;28;20541;-77
2023/10/08 07:08:46;;;;;;;4.47;3.50;;;;;;;15.55;50.81;63602.66;5087385;28;20398;-77
2023/10/08 07:11:14;;;;;;;7.32;3.13;;;;;;;15.69;50.61;63619.25;5089276;28;20387;-78
2023/10/08 07:13:43;;;;;;;7.80;3.80;;;;;;;15.87;48.68;63635.41;5090084;28;20188;-77
2023/10/08 07:16:12;;;;;;;7.18;3.53;;;;;;;15.88;49.14;63639.00;5087846;28;20283;-77
2023/10/08 07:18:41;;;;;;;4.75;3.67;;;;;;;15.98;49.99;63647.34;5091531;28;20226;-78
2023/10/08 07:21:13;;;;;;;4.45;3.50;;;;;;;16.00;49.26;63649.44;5089015;28;20216;-77
2023/10/08 07:23:56;;;;;;;4.63;3.47;;;;;;;16.07;49.96;63656.72;5072156;28;22275;-78
2023/10/08 07:26:24;;;;;;;9.27;4.07;;;;;;;16.23;48.84;63672.31;5091085;28;20227;-78
2023/10/08 07:28:54;;;;;;;4.45;4.05;;;;;;;16.25;48.27;63677.50;5091268;28;20207;-77
2023/10/08 07:31:24;;;;;;;6.05;4.40;;;;;;;16.30;48.65;63680.13;5090652;28;20544;-78
2023/10/08 07:33:56;;;;;;;4.00;3.58;;;;;;;16.44;48.58;63694.69;5082119;28;20222;-78
2023/10/08 07:36:24;;;;;;;10.07;4.95;;;;;;;16.60;48.60;63715.97;5069791;28;20208;-77
2023/10/08 07:38:52;;;;;;;6.38;4.82;;;;;;;16.66;48.26;63712.44;5069825;28;20196;-78
2023/10/08 07:41:20;;;;;;;9.25;5.05;;;;;;;16.71;48.22;63730.50;5078669;28;20221;-80
2023/10/08 07:43:55;;;;;;;5.82;4.80;;;;;;;16.85;48.21;63739.94;5090534;28;20200;-79
2023/10/08 07:46:26;;;;;;;8.43;4.75;;;;;;;16.97;46.76;63755.00;5076809;28;20307;-77
2023/10/08 07:48:53;;;;;;;5.32;3.47;;;;;;;17.32;42.47;63793.50;5077230;28;20215;-78
2023/10/08 07:51:21;;;;;;;6.38;3.75;;;;;;;17.70;43.49;63827.41;5075480;28;20251;-79
2023/10/08 07:53:54;;;;;;;4.38;3.40;;;;;;;17.93;42.32;63848.78;5080826;28;20196;-78
2023/10/08 07:56:21;;;;;;;8.00;4.30;;;;;;;18.09;40.82;63865.44;5076883;28;20212;-78
2023/10/08 07:58:49;;;;;;;5.70;4.15;;;;;;;18.31;41.44;63888.34;5073844;28;20216;-81
2023/10/08 08:01:20;;;;;;;6.75;4.35;;;;;;;18.51;41.73;63914.38;5083139;28;20219;-78
2023/10/08 08:03:50;;;;;;;5.78;4.20;;;;;;;18.67;39.56;63933.66;5080664;28;20275;-77
2023/10/08 08:06:17;;;;;;;8.30;4.30;;;;;;;18.89;40.33;63948.31;5084847;28;20238;-78
2023/10/08 08:08:45;;;;;;;3.50;2.70;;;;;;;19.12;36.30;63972.78;5069889;28;20245;-77
2023/10/08 08:11:13;;;;;;;13.00;4.32;;;;;;;19.40;38.53;64004.06;5087709;28;20218;-78
2023/10/08 08:13:42;;;;;;;6.25;4.50;;;;;;;19.28;39.63;63994.66;5089898;28;20204;-79
2023/10/08 08:16:18;;;;;;;5.35;3.97;;;;;;;19.29;40.85;63992.59;5073446;28;20258;-78
2023/10/08 08:18:45;;;;;;;4.50;4.05;;;;;;;19.24;41.65;63985.31;5080697;28;20193;-78
2023/10/08 08:21:15;;;;;;;6.47;2.92;;;;;;;19.57;36.39;64018.72;5082827;28;20279;-78
2023/10/08 08:23:48;;;;;;;3.15;2.80;;;;;;;19.97;34.10;64066.13;5079126;28;20205;-78
2023/10/08 08:26:27;;;;;;;3.97;3.00;;;;;;;20.17;34.26;64083.91;5070788;28;20251;-77
2023/10/08 08:28:56;;;;;;;3.35;2.72;;;;;;;20.55;33.43;64121.47;5082693;28;20212;-78
2023/10/08 08:31:24;;;;;;;6.10;2.80;;;;;;;20.84;32.71;64150.72;5081458;28;20508;-79
2023/10/08 08:33:56;;;;;;;4.30;3.55;;;;;;;20.76;32.73;64147.56;5072798;28;20203;-79
2023/10/08 08:36:25;;;;;;;5.30;3.13;;;;;;;20.90;31.96;64159.56;5082065;28;20196;-80
2023/10/08 08:38:53;;;;;;;3.05;2.58;;;;;;;20.98;32.40;64165.88;5069738;28;20224;-77
2023/10/08 08:41:22;;;;;;;5.47;2.95;;;;;;;21.04;32.68;64174.72;5084139;28;20220;-79
2023/10/08 08:43:56;;;;;;;4.22;3.05;;;;;;;21.40;32.06;64214.91;5088700;28;20466;-79
2023/10/08 08:46:30;;;;;;;3.35;2.60;;;;;;;21.56;31.35;64229.03;5089788;28;20226;-77
2023/10/08 08:48:58;;;;;;;3.78;3.15;;;;;;;21.58;31.16;64233.72;5071080;28;20235;-76
2023/10/08 08:51:29;;;;;;;3.38;2.95;;;;;;;21.78;31.17;64251.50;5084050;28;20238;-78
2023/10/08 08:53:59;;;;;;;5.88;3.25;;;;;;;21.79;31.69;64255.16;5089650;28;20480;-81
2023/10/08 08:56:28;;;;;;;3.25;2.42;;;;;;;22.14;30.30;64286.53;5083513;28;20502;-76
2023/10/08 08:58:58;;;;;;;5.93;3.20;;;;;;;21.97;30.81;64271.38;5086304;28;20215;-78
2023/10/08 09:01:25;;;;;;;5.75;2.92;;;;;;;21.84;30.67;64260.38;5090140;28;20184;-77
2023/10/08 09:03:52;;;;;;;8.65;3.53;;;;;;;21.96;31.06;64270.34;5085775;28;20208;-78
2023/10/08 09:06:19;;;;;;;3.45;3.15;;;;;;;22.08;30.71;64280.28;5085614;28;20240;-75
2023/10/08 09:08:49;;;;;;;5.13;3.28;;;;;;;22.27;30.33;64302.19;5077012;28;20193;-79
2023/10/08 09:11:17;;;;;;;6.47;3.50;;;;;;;22.08;31.19;64279.75;5078528;28;20216;-78
2023/10/08 09:13:44;;;;;;;4.35;3.42;;;;;;;21.88;31.56;64264.56;5088294;28;20200;-78
2023/10/08 09:16:14;;;;;;;4.28;2.97;;;;;;;22.14;31.18;64291.22;5088438;28;20227;-78
2023/10/08 09:18:45;;;;;;;5.63;2.95;;;;;;;21.78;31.20;64254.63;5087070;28;20197;-77
2023/10/08 09:21:14;;;;;;;5.05;2.65;;;;;;;21.66;31.29;64241.56;5082274;28;20220;-77
2023/10/08 09:23:47;;;;;;;5.55;2.90;;;;;;;21.43;31.84;64214.94;5088037;28;20231;-77
2023/10/08 09:26:18;;;;;;;6.22;3.28;;;;;;;21.25;31.89;64199.25;5081085;28;20480;-78
2023/10/08 09:28:48;;;;;;;7.38;2.95;;;;;;;21.45;31.97;64217.53;5087632;28;20203;-77
2023/10/08 09:31:17;;;;;;;5.82;3.30;;;;;;;21.51;31.95;64221.22;5079482;28;20290;-79
2023/10/08 09:33:54;;;;;;;9.77;3.38;;;;;;;21.67;31.88;64243.13;5086745;28;20196;-78
2023/10/08 09:36:31;;;;;;;3.75;3.13;;;;;;;21.77;30.88;64251.00;5072502;28;20221;-77
2023/10/08 09:39:01;;;;;;;5.15;3.10;;;;;;;21.89;30.92;64259.91;5086727;28;20200;-77
2023/10/08 09:41:30;;;;;;;10.00;3.15;;;;;;;22.02;31.01;64276.09;5083956;28;20236;-78
2023/10/08 09:43:59;;;;;;;4.82;3.40;;;;;;;22.07;31.12;64279.22;5068315;28;20205;-77
2023/10/08 09:46:31;;;;;;;5.93;3.22;;;;;;;21.99;31.06;64275.53;5076877;28;20235;-78
2023/10/08 09:49:01;;;;;;;3.60;2.50;;;;;;;22.22;31.12;64297.50;5077864;28;20208;-78
2023/10/08 09:51:32;;;;;;;3.70;2.97;;;;;;;22.33;31.55;64311.06;5072880;28;20192;-78
2023/10/08 09:54:13;;;;;;;4.30;3.25;;;;;;;22.28;31.41;64300.66;5075548;28;20246;-80
2023/10/08 09:56:44;;;;;;;5.18;3.25;;;;;;;22.61;30.32;64340.34;5089166;28;20196;-78
2023/10/08 09:59:11;;;;;;;8.27;3.65;;;;;;;22.74;29.12;64348.75;5087643;28;20200;-77
2023/10/08 10:01:39;;;;;;;4.57;2.40;;;;;;;22.93;28.98;64368.63;5083145;28;20242;-77
2023/10/08 10:04:10;;;;;;;3.72;2.75;;;;;;;22.69;30.00;64346.66;5068513;28;20201;-76
2023/10/08 10:06:39;;;;;;;4.97;3.05;;;;;;;22.92;29.97;64369.66;5069508;28;20233;-79
2023/10/08 10:09:15;;;;;;;6.82;3.40;;;;;;;22.99;30.20;64382.69;5071850;28;20531;-79
2023/10/08 10:11:49;;;;;;;4.53;3.33;;;;;;;23.14;29.90;64398.41;5070929;28;20199;-78
2023/10/08 10:14:18;;;;;;;4.45;3.03;;;;;;;23.07;30.07;64383.28;5080523;28;20215;-79
2023/10/08 10:16:48;;;;;;;5.20;3.05;;;;;;;23.13;29.98;64394.22;5089633;28;20192;-77
2023/10/08 10:19:20;;;;;;;2.97;2.50;;;;;;;23.05;30.09;64385.84;5080655;28;20267;-76
2023/10/08 10:21:48;;;;;;;14.18;3.25;;;;;;;23.06;30.58;64389.47;5083406;28;20420;-77
2023/10/08 10:24:34;;;;;;;3.10;2.80;;;;;;;23.10;30.73;64391.59;5090631;28;20211;-78
2023/10/08 10:27:14;;;;;;;8.13;3.45;;;;;;;23.08;30.78;64386.38;5088504;28;20278;-79
2023/10/08 10:29:43;;;;;;;5.13;2.97;;;;;;;23.15;30.86;64399.44;5077996;28;20283;-79
2023/10/08 10:32:14;;;;;;;3.08;2.65;;;;;;;23.08;31.04;64383.78;5082685;28;20509;-77
2023/10/08 10:34:43;;;;;;;3.55;2.92;;;;;;;22.96;31.18;64374.38;5088093;28;20215;-78
2023/10/08 10:37:19;;;;;;;5.57;2.47;;;;;;;22.80;31.61;64355.03;5070651;28;20390;-79
2023/10/08 10:39:59;;;;;;;6.32;2.97;;;;;;;22.81;31.69;64359.19;5077720;28;20224;-77
2023/10/08 10:42:28;;;;;;;4.82;2.97;;;;;;;22.92;31.47;64370.69;5069158;28;20219;-78
2023/10/08 10:44:58;;;;;;;2.63;2.42;;;;;;;23.10;31.26;64388.47;5068813;28;20414;-78
2023/10/08 10:47:42;;;;;;;5.53;2.90;;;;;;;23.23;31.66;64399.50;5070226;28;20246;-78
2023/10/08 10:52:54;;;;;;;2.90;2.60;;;;;;;23.28;31.36;64407.84;5071924;28;20264;-78
2023/10/08 10:55:22;;;;;;;4.65;2.63;;;;;;;23.52;31.81;64432.94;5069162;28;20571;-77
2023/10/08 10:57:56;;;;;;;3.10;2.40;;;;;;;23.65;31.60;64451.75;5070095;28;20367;-77
2023/10/08 11:03:16;;;;;;;2.78;2.40;;;;;;;23.16;31.68;64394.75;5080099;28;20385;-76
2023/10/08 11:05:48;;;;;;;3.17;2.75;;;;;;;23.25;31.61;64404.16;5080787;28;20458;-78
2023/10/08 11:08:18;;;;;;;2.75;2.30;;;;;;;22.92;32.28;64375.38;5079594;28;20258;-77
2023/10/08 11:10:50;;;;;;;4.32;2.95;;;;;;;23.10;32.42;64393.69;5077582;28;20220;-80
2023/10/08 11:13:22;;;;;;;2.90;2.70;;;;;;;23.25;32.26;64404.16;5081924;28;20200;-79
2023/10/08 11:15:52;;;;;;;3.88;2.20;;;;;;;23.41;32.45;64421.44;5080846;28;20220;-79
2023/10/08 11:18:21;;;;;;;5.38;2.80;;;;;;;23.30;32.93;64406.81;5068857;28;20255;-78
2023/10/08 11:20:54;;;;;;;3.03;2.67;;;;;;;23.52;32.62;64432.44;5077743;28;20224;-80
2023/10/08 11:23:36;;;;;;;4.65;2.78;;;;;;;23.42;32.78;64425.09;5085264;28;20217;-76
2023/10/08 11:26:06;;;;;;;3.63;2.22;;;;;;;23.49;32.50;64431.88;5087639;28;20261;-78
2023/10/08 11:28:35;;;;;;;9.43;2.70;;;;;;;23.54;32.43;64440.25;5071873;28;20225;-79
2023/10/08 11:31:09;;;;;;;7.97;3.80;;;;;;;23.72;32.83;64455.97;5080578;28;20277;-78
2023/10/08 11:33:37;;;;;;;4.30;2.55;;;;;;;23.40;33.17;64417.78;5073852;28;20211;-76
2023/10/08 11:36:07;;;;;;;4.10;2.72;;;;;;;23.40;33.84;64425.59;5082851;28;20374;-77
2023/10/08 11:38:41;;;;;;;4.93;2.50;;;;;;;23.55;33.24;64435.56;5088782;28;20200;-78
2023/10/08 11:41:20;;;;;;;7.30;3.00;;;;;;;23.30;33.75;64412.00;5084426;28;20553;-77
2023/10/08 11:43:53;;;;;;;6.88;2.45;;;;;;;23.60;33.46;64441.34;5072902;28;20192;-79
2023/10/08 11:46:27;;;;;;;9.00;3.45;;;;;;;23.78;33.26;64467.44;5067103;28;20225;-79
2023/10/08 11:48:57;;;;;;;8.13;3.50;;;;;;;23.43;34.21;64426.16;5075862;28;20260;-78
2023/10/08 11:51:25;;;;;;;7.20;2.55;;;;;;;23.55;34.17;64440.78;5066763;28;20512;-79
2023/10/08 11:53:53;;;;;;;7.10;2.63;;;;;;;23.50;34.35;64428.28;5072396;28;20230;-79
2023/10/08 11:56:23;;;;;;;15.55;10.73;;;;;;;23.41;34.41;64424.06;5069266;28;20220;-78
2023/10/08 11:58:52;;;;;;;4.72;2.10;;;;;;;23.49;34.05;64429.28;5083911;28;20200;-78
2023/10/08 12:01:20;;;;;;;7.03;2.53;;;;;;;23.24;34.25;64403.66;5076937;28;20224;-78
2023/10/08 12:03:49;;;;;;;7.45;2.63;;;;;;;23.38;33.99;64420.38;5086330;28;20236;-78
2023/10/08 12:06:18;;;;;;;7.32;3.00;;;;;;;23.27;34.53;64406.25;5104224;28;20235;-79
2023/10/08 12:08:46;;;;;;;10.27;3.42;;;;;;;23.21;34.75;64403.09;5104525;28;20405;-79
2023/10/08 12:11:14;;;;;;;5.70;2.50;;;;;;;23.11;34.94;64392.13;5082332;28;20379;-78
2023/10/08 12:13:45;;;;;;;8.60;3.03;;;;;;;22.75;35.28;64350.34;5071708;28;20199;-79
2023/10/08 12:16:21;;;;;;;4.47;2.10;;;;;;;22.51;35.45;64325.22;5073424;28;20242;-76